Osceola, Indiana
Current Conditions -  °F | °C
As of 7:01 AM on Monday 24 Nov 2014 (Local Time) from KSBN Reporting Station
Light Rain Light Rain  
Wind Chill: 51°   Ceiling: 400
Heat Index: 51°   Visibility: 7mi
Dew Point: 50°   Wind: 9mph
Humidity: 96%   Direction: 200°SSW
Pressure: 29.1"   Gusts: NA
Location:  41.67°N, 86.08°W
Report Text: KSBN 241201Z 20008KT 7SM -RA OVC004 11/10 A2910 RMK AO2 P0000 T01060100
Loading
Personal Weather Stations






























Interactive Weather Map New forecast layout! Learn more

10-Day Weather Forecast

Advertisements
Track Severe Weather on mobile